Time;durP1;ratioP1;P1;durP2;ratioP2;P2;SDS_P1;SDS_P2;PMS_P1;PMS_P2;Temp;Humidity;BMP_temperature;BMP_pressure;BME280_temperature;BME280_humidity;BME280_pressure;Samples;Min_cycle;Max_cycle;Signal;HPM_P1;HPM_P2
2024/02/25 02:45:44;;;;;;;11.90;4.70;;;;;;;10.81;65.06;101479.94;106329;1254;73902;-82
2024/02/25 02:48:23;;;;;;;13.20;5.10;;;;;;;10.77;64.82;101479.77;106437;1256;68340;-82
2024/02/25 02:51:03;;;;;;;10.80;3.80;;;;;;;10.72;64.88;101477.38;106415;1254;72652;-82
2024/02/25 02:53:43;;;;;;;16.70;6.10;;;;;;;10.71;64.62;101475.45;106387;1251;60460;-83
2024/02/25 02:56:23;;;;;;;17.10;6.50;;;;;;;10.72;64.67;101475.02;106396;1254;60358;-83
2024/02/25 02:59:03;;;;;;;14.80;5.50;;;;;;;10.71;64.80;101479.39;106499;1252;73813;-83
2024/02/25 03:01:43;;;;;;;9.90;4.10;;;;;;;10.70;64.69;101479.48;106289;1254;68490;-82
2024/02/25 03:04:23;;;;;;;8.60;3.90;;;;;;;10.68;64.81;101477.48;106265;1254;72709;-82
2024/02/25 03:07:03;;;;;;;14.50;5.80;;;;;;;10.65;64.61;101473.84;106424;1253;60412;-82
2024/02/25 03:09:43;;;;;;;13.70;4.70;;;;;;;10.65;64.46;101478.05;106254;1253;60318;-82
2024/02/25 03:12:23;;;;;;;8.30;4.10;;;;;;;10.67;64.16;101474.46;106350;1254;74039;-82
2024/02/25 03:15:03;;;;;;;11.40;4.90;;;;;;;10.68;64.45;101477.05;106366;1254;67685;-82
2024/02/25 03:17:47;;;;;;;20.60;7.90;;;;;;;10.70;63.96;101473.29;106473;1254;72705;-81
2024/02/25 03:20:28;;;;;;;19.80;6.60;;;;;;;10.67;64.11;101468.08;106269;1254;60447;-82
2024/02/25 03:23:07;;;;;;;7.20;4.00;;;;;;;10.63;64.00;101465.02;106476;1255;60347;-82
2024/02/25 03:25:47;;;;;;;7.10;3.70;;;;;;;10.58;64.22;101469.10;106633;1254;73949;-82
2024/02/25 03:28:27;;;;;;;7.00;4.40;;;;;;;10.52;64.35;101472.70;106398;1256;67091;-82
2024/02/25 03:31:07;;;;;;;10.80;4.40;;;;;;;10.48;64.27;101480.73;106316;1256;71453;-82
2024/02/25 03:33:47;;;;;;;10.80;4.80;;;;;;;10.51;64.34;101488.97;106352;1256;60485;-82
2024/02/25 03:36:27;;;;;;;10.40;4.60;;;;;;;10.56;64.03;101487.12;106584;1254;60565;-82
2024/02/25 03:39:07;;;;;;;12.10;4.80;;;;;;;10.60;64.23;101488.75;106691;1254;73801;-82
2024/02/25 03:41:47;;;;;;;8.20;4.20;;;;;;;10.62;64.15;101489.00;106347;1257;67279;-82
2024/02/25 03:44:27;;;;;;;10.40;4.90;;;;;;;10.64;63.96;101488.98;106394;1254;71372;-83
2024/02/25 03:47:07;;;;;;;7.40;3.30;;;;;;;10.68;63.09;101484.92;106321;1254;60511;-82
2024/02/25 03:49:47;;;;;;;8.00;3.70;;;;;;;10.61;62.80;101485.70;106392;1257;60580;-82
2024/02/25 03:52:27;;;;;;;7.30;3.80;;;;;;;10.53;63.11;101492.48;106461;1254;73848;-82
2024/02/25 03:55:07;;;;;;;9.30;3.90;;;;;;;10.51;63.17;101491.10;106508;1253;68360;-82
2024/02/25 03:57:47;;;;;;;9.70;4.60;;;;;;;10.52;63.17;101491.79;106408;1258;72466;-82
2024/02/25 04:00:27;;;;;;;12.70;4.60;;;;;;;10.50;62.35;101496.07;106516;1252;60408;-82
2024/02/25 04:03:07;;;;;;;9.40;5.20;;;;;;;10.56;62.06;101497.28;106393;1258;60389;-82
2024/02/25 04:05:47;;;;;;;13.00;4.70;;;;;;;10.55;62.21;101496.46;106245;1254;73908;-82
2024/02/25 04:08:27;;;;;;;8.30;4.90;;;;;;;10.58;61.80;101494.48;106327;1254;68429;-82
2024/02/25 04:11:07;;;;;;;8.80;4.10;;;;;;;10.58;61.78;101494.54;106403;1254;72657;-82
2024/02/25 04:13:47;;;;;;;11.60;4.20;;;;;;;10.57;61.79;101491.13;106254;1254;60328;-82
2024/02/25 04:16:27;;;;;;;7.70;4.20;;;;;;;10.54;61.32;101492.46;106433;1254;60408;-82
2024/02/25 04:19:06;;;;;;;8.80;4.80;;;;;;;10.55;60.86;101488.53;106697;1257;73832;-82
2024/02/25 04:21:47;;;;;;;8.60;3.60;;;;;;;10.58;61.19;101496.27;106336;1254;67376;-82
2024/02/25 04:24:27;;;;;;;9.60;4.30;;;;;;;10.58;60.28;101499.67;106251;1254;72654;-82
2024/02/25 04:27:07;;;;;;;7.90;3.70;;;;;;;10.55;59.72;101495.48;106525;1254;60431;-82
2024/02/25 04:29:47;;;;;;;9.40;3.70;;;;;;;10.55;60.26;101494.70;106330;1254;60476;-82
2024/02/25 04:32:27;;;;;;;13.20;4.70;;;;;;;10.51;60.51;101498.17;106340;1254;72563;-81
2024/02/25 04:35:07;;;;;;;10.20;4.20;;;;;;;10.49;60.48;101492.27;106395;1254;66117;-82
2024/02/25 04:37:47;;;;;;;8.50;4.10;;;;;;;10.52;60.45;101494.13;106242;1256;72718;-82
2024/02/25 04:40:26;;;;;;;9.80;4.40;;;;;;;10.47;60.80;101496.45;106335;1256;60537;-82
2024/02/25 04:43:06;;;;;;;10.40;4.90;;;;;;;10.48;60.88;101501.56;106509;1252;60485;-83
2024/02/25 04:45:46;;;;;;;8.70;3.80;;;;;;;10.48;60.86;101509.87;106343;1253;73301;-82
2024/02/25 04:48:26;;;;;;;8.60;3.80;;;;;;;10.43;59.83;101508.27;106463;1254;68711;-82
2024/02/25 04:51:07;;;;;;;8.40;3.90;;;;;;;10.39;59.83;101506.02;106559;1256;71476;-82
2024/02/25 04:53:47;;;;;;;14.10;5.30;;;;;;;10.38;60.42;101510.39;106376;1258;60506;-82
2024/02/25 04:56:27;;;;;;;12.60;5.70;;;;;;;10.39;60.79;101508.30;106529;1258;60435;-82
2024/02/25 04:59:07;;;;;;;15.20;6.10;;;;;;;10.35;61.31;101511.09;106334;1253;73865;-82
2024/02/25 05:01:52;;;;;;;15.80;6.80;;;;;;;10.31;61.70;101514.33;106385;1253;68506;-82
2024/02/25 05:04:32;;;;;;;14.30;5.40;;;;;;;10.25;62.22;101521.00;106623;1254;71377;-82
2024/02/25 05:07:12;;;;;;;15.10;5.90;;;;;;;10.19;62.16;101518.89;106426;1254;61135;-82
2024/02/25 05:09:52;;;;;;;16.70;6.50;;;;;;;10.20;62.44;101521.52;106339;1253;60453;-82
2024/02/25 05:12:32;;;;;;;13.90;6.60;;;;;;;10.12;63.12;101526.52;106412;1254;72859;-83
2024/02/25 05:15:12;;;;;;;13.30;5.80;;;;;;;10.08;63.42;101528.17;106271;1256;66155;-82
2024/02/25 05:17:52;;;;;;;17.00;5.80;;;;;;;10.05;63.37;101531.14;106492;1254;72792;-82
2024/02/25 05:20:32;;;;;;;12.80;4.90;;;;;;;9.95;63.61;101534.73;106305;1259;61177;-82
2024/02/25 05:23:12;;;;;;;8.60;4.40;;;;;;;9.85;64.13;101540.86;106383;1254;61129;-82
2024/02/25 05:25:52;;;;;;;17.40;5.50;;;;;;;9.75;64.67;101544.88;106297;1254;73826;-82
2024/02/25 05:28:32;;;;;;;13.60;5.40;;;;;;;9.68;65.05;101550.01;106247;1254;67310;-83
2024/02/25 05:31:12;;;;;;;11.40;4.70;;;;;;;9.70;65.71;101549.33;106359;1254;72636;-82
2024/02/25 05:33:51;;;;;;;15.10;5.50;;;;;;;9.71;65.59;101557.37;106256;1253;60380;-82
2024/02/25 05:36:32;;;;;;;18.40;6.00;;;;;;;9.65;65.84;101557.66;106565;1257;61940;-82
2024/02/25 05:39:12;;;;;;;13.80;5.40;;;;;;;9.62;66.00;101559.51;106374;1254;73488;-82
2024/02/25 05:41:52;;;;;;;11.90;5.20;;;;;;;9.66;65.78;101560.89;106343;1256;66346;-82
2024/02/25 05:44:31;;;;;;;12.20;4.60;;;;;;;9.69;65.36;101562.52;106375;1253;72707;-82
2024/02/25 05:47:12;;;;;;;13.80;5.00;;;;;;;9.64;65.26;101562.98;106261;1254;61138;-82
2024/02/25 05:49:52;;;;;;;12.70;5.20;;;;;;;9.58;65.63;101561.02;106314;1259;61190;-82
2024/02/25 05:52:31;;;;;;;12.70;5.50;;;;;;;9.61;65.41;101558.84;106228;1252;77168;-82
2024/02/25 05:55:17;;;;;;;12.70;5.90;;;;;;;9.65;65.04;101558.63;106213;1254;67957;-83
2024/02/25 05:57:57;;;;;;;13.70;5.80;;;;;;;9.70;64.67;101562.75;106429;1254;71233;-82
2024/02/25 06:00:37;;;;;;;14.10;4.90;;;;;;;9.68;64.71;101563.05;106291;1254;61222;-83
2024/02/25 06:03:18;;;;;;;13.00;5.10;;;;;;;9.68;64.94;101560.91;106456;1254;61092;-83
2024/02/25 06:05:58;;;;;;;18.90;5.80;;;;;;;9.70;64.67;101563.75;106406;1253;74565;-83
2024/02/25 06:08:38;;;;;;;15.40;5.30;;;;;;;9.65;64.18;101566.29;106349;1254;68373;-83
2024/02/25 06:11:18;;;;;;;11.50;4.70;;;;;;;9.62;64.93;101567.66;106466;1254;74433;-83
2024/02/25 06:13:58;;;;;;;16.50;5.70;;;;;;;9.70;64.46;101574.94;106345;1252;61282;-83
2024/02/25 06:16:38;;;;;;;14.30;5.40;;;;;;;9.74;64.12;101580.09;106356;1259;61145;-83
2024/02/25 06:19:18;;;;;;;11.60;5.40;;;;;;;9.82;63.94;101582.41;106364;1258;74900;-83
2024/02/25 06:21:57;;;;;;;15.00;4.90;;;;;;;9.87;63.44;101586.69;106452;1254;68688;-83
2024/02/25 06:24:37;;;;;;;15.10;4.90;;;;;;;9.87;63.01;101584.23;106279;1258;71389;-83
2024/02/25 06:27:17;;;;;;;13.30;5.70;;;;;;;9.91;62.78;101580.43;106511;1254;61211;-83
2024/02/25 06:29:57;;;;;;;10.00;4.80;;;;;;;9.94;62.51;101581.73;106293;1259;61225;-83
2024/02/25 06:32:37;;;;;;;13.40;5.30;;;;;;;9.89;62.70;101581.48;106312;1253;74627;-83
2024/02/25 06:35:17;;;;;;;15.80;4.80;;;;;;;9.87;62.61;101578.17;106332;1253;68393;-83
2024/02/25 06:37:58;;;;;;;13.40;4.60;;;;;;;9.84;62.54;101586.15;106390;1253;71938;-83
2024/02/25 06:40:38;;;;;;;14.60;5.70;;;;;;;9.78;62.71;101583.98;106266;1254;61580;-83
2024/02/25 06:43:18;;;;;;;14.90;4.80;;;;;;;9.81;61.95;101586.38;106479;1260;61273;-83
2024/02/25 06:45:46;;;;;;;12.90;4.90;;;;;;;9.87;61.00;101583.92;106265;1257;74748;-83
2024/02/25 06:48:20;;;;;;;14.90;5.40;;;;;;;9.86;61.23;101578.27;106390;1253;67112;-83
2024/02/25 06:50:54;;;;;;;15.90;5.70;;;;;;;9.84;61.36;101581.14;106414;1254;71087;-83
2024/02/25 06:53:30;;;;;;;16.00;5.20;;;;;;;9.81;61.58;101587.74;106289;1254;61345;-83
2024/02/25 06:55:58;;;;;;;17.00;5.30;;;;;;;9.80;61.35;101585.48;106315;1256;63390;-83
2024/02/25 06:58:32;;;;;;;16.60;6.70;;;;;;;9.85;61.41;101579.34;106387;1258;74583;-83
2024/02/25 07:01:06;;;;;;;15.70;6.40;;;;;;;9.78;62.10;101576.61;106312;1254;68576;-84
2024/02/25 07:03:44;;;;;;;18.30;7.40;;;;;;;9.81;62.07;101585.93;106286;1258;76755;-83
2024/02/25 07:06:12;;;;;;;16.40;5.30;;;;;;;9.83;61.46;101579.54;106246;1258;61269;-82
2024/02/25 07:08:46;;;;;;;14.50;5.70;;;;;;;9.81;61.42;101577.27;106339;1252;61259;-83
2024/02/25 07:11:20;;;;;;;19.80;7.20;;;;;;;9.86;60.36;101577.45;106467;1254;73637;-83
2024/02/25 07:13:49;;;;;;;14.70;6.40;;;;;;;9.86;60.49;101576.74;106288;1254;67594;-82
2024/02/25 07:16:20;;;;;;;12.80;6.10;;;;;;;9.94;60.71;101582.77;106331;1254;72666;-83
2024/02/25 07:18:53;;;;;;;14.50;6.80;;;;;;;10.02;60.23;101582.95;106413;1254;61350;-82
2024/02/25 07:21:27;;;;;;;15.70;6.30;;;;;;;10.03;58.97;101592.10;106382;1256;61102;-84
2024/02/25 07:23:55;;;;;;;25.80;8.90;;;;;;;10.00;58.65;101588.54;106363;1253;76741;-83
2024/02/25 07:26:29;;;;;;;14.80;7.10;;;;;;;9.98;58.84;101582.23;106272;1254;70846;-83
2024/02/25 07:29:03;;;;;;;17.80;6.80;;;;;;;9.97;58.65;101574.46;106445;1253;73111;-83
2024/02/25 07:31:37;;;;;;;14.80;6.20;;;;;;;9.99;58.65;101575.66;106351;1254;61333;-83
2024/02/25 07:34:11;;;;;;;14.70;6.50;;;;;;;10.08;59.04;101581.09;106268;1253;61333;-83
2024/02/25 07:36:45;;;;;;;14.40;5.90;;;;;;;10.13;58.58;101575.27;106391;1253;74618;-83
2024/02/25 07:39:19;;;;;;;10.10;4.50;;;;;;;10.18;57.11;101571.02;106341;1259;68695;-83
2024/02/25 07:41:53;;;;;;;17.30;7.40;;;;;;;10.23;57.04;101579.98;106373;1254;72671;-82
2024/02/25 07:44:27;;;;;;;14.90;5.90;;;;;;;10.33;57.45;101581.34;106309;1254;60817;-82
2024/02/25 07:47:01;;;;;;;12.90;5.40;;;;;;;10.49;56.10;101579.34;106402;1254;61288;-82
2024/02/25 07:49:35;;;;;;;10.40;5.00;;;;;;;10.60;55.11;101585.52;106481;1259;74643;-83
2024/02/25 07:52:10;;;;;;;14.40;5.20;;;;;;;10.70;54.12;101575.93;106299;1259;67564;-85
2024/02/25 07:54:44;;;;;;;13.00;5.40;;;;;;;10.66;54.90;101569.23;106327;1254;72644;-84
2024/02/25 07:57:18;;;;;;;17.70;6.20;;;;;;;10.66;54.94;101568.55;106369;1254;61659;-85
2024/02/25 07:59:53;;;;;;;9.80;4.40;;;;;;;10.78;54.83;101567.17;106184;1254;60880;-85
2024/02/25 08:02:27;;;;;;;13.90;5.00;;;;;;;10.87;54.24;101560.84;106416;1259;73823;-84
2024/02/25 08:05:02;;;;;;;8.40;3.90;;;;;;;10.98;54.42;101556.80;106691;1256;67082;-84
2024/02/25 08:07:36;;;;;;;13.60;3.90;;;;;;;11.09;54.44;101558.80;106603;1254;72733;-84
2024/02/25 08:10:11;;;;;;;9.60;4.40;;;;;;;11.16;53.42;101547.98;106425;1254;61382;-85
2024/02/25 08:12:46;;;;;;;10.30;4.70;;;;;;;11.22;53.27;101548.27;106553;1254;61403;-86
2024/02/25 08:15:20;;;;;;;10.50;3.60;;;;;;;11.29;52.45;101557.76;106503;1254;73370;-85
2024/02/25 08:17:54;;;;;;;6.80;3.70;;;;;;;11.38;52.00;101556.60;106455;1254;68534;-84
2024/02/25 08:20:28;;;;;;;6.80;3.20;;;;;;;11.46;52.23;101557.55;106360;1254;72687;-86
2024/02/25 08:23:02;;;;;;;6.30;4.00;;;;;;;11.50;51.47;101555.52;106458;1254;61323;-85
2024/02/25 08:25:36;;;;;;;11.70;4.20;;;;;;;11.58;51.05;101554.94;106617;1254;61338;-86
2024/02/25 08:28:10;;;;;;;8.90;3.80;;;;;;;11.62;51.05;101552.33;106129;1260;74919;-85
2024/02/25 08:30:44;;;;;;;8.30;4.20;;;;;;;11.79;51.32;101550.03;106361;1259;67167;-85
2024/02/25 08:33:18;;;;;;;14.70;6.80;;;;;;;11.96;51.03;101552.02;106509;1259;73339;-85
2024/02/25 08:35:52;;;;;;;13.20;5.00;;;;;;;12.12;50.38;101552.36;106296;1254;61268;-85
2024/02/25 08:38:26;;;;;;;5.90;3.60;;;;;;;12.28;50.48;101552.09;106411;1254;61234;-84
2024/02/25 08:41:02;;;;;;;7.60;3.70;;;;;;;12.38;49.58;101554.73;106296;1256;76585;-84
2024/02/25 08:43:36;;;;;;;8.30;4.10;;;;;;;12.42;49.05;101549.93;106378;1254;66599;-84
2024/02/25 08:46:10;;;;;;;9.30;3.80;;;;;;;12.46;48.07;101556.20;106390;1254;74049;-86
2024/02/25 08:48:45;;;;;;;5.00;3.40;;;;;;;12.52;47.93;101552.80;106492;1257;61503;-85
2024/02/25 08:51:19;;;;;;;6.20;3.60;;;;;;;12.71;47.86;101555.90;106428;1254;62159;-86
2024/02/25 08:53:54;;;;;;;6.90;3.80;;;;;;;12.86;47.48;101563.98;106361;1254;76655;-85
2024/02/25 08:56:28;;;;;;;10.90;4.60;;;;;;;12.97;46.77;101568.48;106344;1254;69078;-85
2024/02/25 08:59:01;;;;;;;10.20;4.60;;;;;;;13.03;46.30;101562.40;106317;1259;73258;-85
2024/02/25 09:01:35;;;;;;;14.40;5.70;;;;;;;13.10;46.69;101563.57;106417;1254;61485;-85
2024/02/25 09:04:10;;;;;;;14.60;5.60;;;;;;;13.20;47.35;101556.36;106352;1254;61340;-84
2024/02/25 09:06:44;;;;;;;14.80;6.40;;;;;;;13.27;47.13;101558.55;106590;1254;73462;-84
2024/02/25 09:09:18;;;;;;;11.60;5.20;;;;;;;13.33;46.74;101562.74;106302;1259;67667;-85
2024/02/25 09:11:55;;;;;;;11.90;5.10;;;;;;;13.38;45.25;101563.14;106258;1257;72699;-85
2024/02/25 09:14:29;;;;;;;11.80;5.20;;;;;;;13.35;44.60;101564.45;106410;1253;61324;-84
2024/02/25 09:17:04;;;;;;;13.30;5.70;;;;;;;13.43;44.79;101563.31;106293;1259;61251;-85
2024/02/25 09:19:37;;;;;;;11.60;4.30;;;;;;;13.60;45.65;101556.54;106439;1254;76951;-84
2024/02/25 09:22:11;;;;;;;7.00;3.90;;;;;;;13.82;45.26;101557.92;106443;1254;67621;-84
2024/02/25 09:24:46;;;;;;;10.00;4.30;;;;;;;13.97;44.99;101555.73;106725;1257;73020;-84
2024/02/25 09:27:19;;;;;;;9.30;3.80;;;;;;;14.10;44.53;101558.58;106389;1257;61191;-84
2024/02/25 09:29:54;;;;;;;10.90;4.20;;;;;;;14.14;43.87;101547.75;106493;1256;61125;-84
2024/02/25 09:32:30;;;;;;;11.30;4.40;;;;;;;14.13;44.08;101551.33;106480;1259;76785;-84
2024/02/25 09:35:04;;;;;;;14.30;6.90;;;;;;;14.11;43.68;101551.23;106196;1254;69642;-82
2024/02/25 09:37:38;;;;;;;19.30;7.60;;;;;;;14.15;44.05;101552.98;106441;1257;74987;-82
2024/02/25 09:40:13;;;;;;;10.90;4.60;;;;;;;14.13;43.10;101556.83;106468;1259;61375;-83
2024/02/25 09:42:47;;;;;;;7.50;4.20;;;;;;;14.00;42.74;101548.02;106494;1254;61361;-82
2024/02/25 09:45:22;;;;;;;10.30;4.00;;;;;;;13.83;43.11;101551.39;106363;1254;73395;-82
2024/02/25 09:47:56;;;;;;;7.90;4.30;;;;;;;13.70;43.25;101545.77;106621;1257;66839;-82
2024/02/25 09:50:33;;;;;;;9.60;4.60;;;;;;;13.62;43.14;101546.60;106417;1254;70618;-82
2024/02/25 09:53:07;;;;;;;9.20;4.90;;;;;;;13.52;43.09;101556.20;106412;1253;62023;-82
2024/02/25 09:55:44;;;;;;;10.60;5.50;;;;;;;13.38;43.89;101549.14;106226;1260;61176;-82
2024/02/25 09:58:18;;;;;;;15.10;5.50;;;;;;;13.30;44.36;101555.55;106473;1255;74693;-82
2024/02/25 10:00:52;;;;;;;10.90;5.30;;;;;;;13.21;44.57;101548.30;106335;1254;67569;-81
2024/02/25 10:03:26;;;;;;;13.80;5.70;;;;;;;13.13;45.04;101546.69;106500;1254;74586;-82
2024/02/25 10:06:00;;;;;;;12.20;4.80;;;;;;;13.08;45.00;101546.17;106319;1260;61167;-82
2024/02/25 10:08:46;;;;;;;9.40;4.90;;;;;;;13.03;45.18;101546.55;106370;1254;61256;-83
2024/02/25 10:11:22;;;;;;;9.50;4.80;;;;;;;13.00;45.35;101543.84;106640;1259;74579;-83
2024/02/25 10:13:56;;;;;;;11.80;5.10;;;;;;;12.91;45.78;101537.05;106747;1259;67260;-83
2024/02/25 10:16:30;;;;;;;12.40;5.60;;;;;;;12.89;45.68;101530.30;106614;1258;73703;-83
2024/02/25 10:19:04;;;;;;;15.20;7.20;;;;;;;12.84;46.23;101525.13;106822;1259;61217;-83
2024/02/25 10:21:38;;;;;;;9.00;3.80;;;;;;;12.89;46.48;101517.91;106323;1260;61419;-83
2024/02/25 10:24:12;;;;;;;5.90;3.30;;;;;;;12.89;47.50;101517.79;106385;1253;76925;-83
2024/02/25 10:26:46;;;;;;;11.60;5.20;;;;;;;12.66;48.47;101520.83;106444;1254;70715;-83
2024/02/25 10:29:20;;;;;;;7.30;3.90;;;;;;;12.46;49.24;101523.27;106390;1259;74719;-84
2024/02/25 10:31:57;;;;;;;9.50;3.60;;;;;;;12.33;49.90;101524.33;106326;1254;61423;-83
2024/02/25 10:34:31;;;;;;;14.10;5.20;;;;;;;12.22;50.45;101517.08;106401;1259;61247;-83
2024/02/25 10:37:06;;;;;;;8.10;3.80;;;;;;;12.13;50.96;101522.88;106370;1257;75624;-83
2024/02/25 10:39:40;;;;;;;10.40;4.30;;;;;;;12.00;50.93;101517.20;106717;1255;70455;-82
2024/02/25 10:42:14;;;;;;;9.20;4.00;;;;;;;11.90;50.74;101516.73;106290;1259;72805;-83
2024/02/25 10:44:48;;;;;;;6.80;3.50;;;;;;;11.78;51.46;101511.96;106454;1254;61340;-83
2024/02/25 22:47:42;;;;;;;20.60;7.10;;;;;;;8.40;55.39;101410.80;106455;1256;74669;-82
2024/02/25 22:50:22;;;;;;;18.10;7.50;;;;;;;8.40;55.43;101416.41;106411;1254;68357;-82
2024/02/25 22:53:01;;;;;;;19.60;8.20;;;;;;;8.38;55.46;101414.90;106380;1254;71795;-82
2024/02/25 22:55:35;;;;;;;17.00;7.40;;;;;;;8.31;55.73;101412.40;106363;1257;61442;-82
2024/02/25 22:58:09;;;;;;;15.40;7.10;;;;;;;8.28;56.24;101402.73;106521;1254;61231;-82
2024/02/25 23:00:43;;;;;;;16.20;7.10;;;;;;;8.27;56.46;101391.61;106509;1254;73423;-83
2024/02/25 23:03:16;;;;;;;18.10;7.80;;;;;;;8.24;56.29;101391.87;106467;1253;70403;-82
2024/02/25 23:05:50;;;;;;;18.10;7.50;;;;;;;8.21;56.61;101397.36;106298;1257;71438;-82
2024/02/25 23:08:24;;;;;;;18.90;7.10;;;;;;;8.25;56.16;101392.59;106423;1254;61234;-82
2024/02/25 23:10:58;;;;;;;15.90;6.60;;;;;;;8.26;56.27;101385.48;106403;1254;59254;-82
2024/02/25 23:13:32;;;;;;;18.40;7.30;;;;;;;8.24;56.20;101389.30;106610;1257;75118;-83
2024/02/25 23:16:06;;;;;;;14.60;7.00;;;;;;;8.19;56.41;101392.88;106464;1254;68402;-82
2024/02/25 23:18:40;;;;;;;17.60;6.90;;;;;;;8.21;56.30;101391.15;106376;1259;72687;-83
2024/02/25 23:21:14;;;;;;;16.50;6.80;;;;;;;8.22;56.06;101387.86;106407;1256;61186;-82
2024/02/25 23:23:48;;;;;;;16.90;7.20;;;;;;;8.22;56.07;101389.43;106240;1253;61385;-82
2024/02/25 23:26:22;;;;;;;18.10;8.20;;;;;;;8.20;56.10;101392.42;106467;1254;74657;-82
2024/02/25 23:28:55;;;;;;;25.70;8.90;;;;;;;8.07;56.79;101386.73;106414;1254;68381;-81
2024/02/25 23:31:29;;;;;;;15.00;7.60;;;;;;;8.04;57.23;101387.64;106326;1254;72778;-81
2024/02/25 23:34:03;;;;;;;19.80;7.10;;;;;;;7.96;57.62;101390.09;106347;1254;61218;-81
2024/02/25 23:36:37;;;;;;;23.50;8.00;;;;;;;7.94;57.80;101382.98;106379;1252;61282;-81
2024/02/25 23:39:11;;;;;;;15.00;6.80;;;;;;;7.98;57.80;101385.50;106318;1254;74651;-82
2024/02/25 23:41:45;;;;;;;15.10;6.90;;;;;;;7.94;58.00;101382.25;106445;1259;68126;-82
2024/02/25 23:44:18;;;;;;;15.50;7.40;;;;;;;7.88;58.25;101386.27;106372;1253;72674;-82
2024/02/25 23:46:52;;;;;;;16.00;6.70;;;;;;;7.83;58.36;101390.21;106515;1254;61371;-82
2024/02/25 23:49:26;;;;;;;15.80;6.70;;;;;;;7.76;58.68;101396.34;106534;1254;61144;-82
2024/02/25 23:52:00;;;;;;;13.40;5.90;;;;;;;7.72;59.15;101382.96;106538;1256;74613;-82
2024/02/25 23:54:34;;;;;;;13.30;6.00;;;;;;;7.66;59.03;101383.98;106417;1259;67227;-82
2024/02/25 23:57:08;;;;;;;14.40;5.50;;;;;;;7.67;59.49;101387.65;106350;1259;72680;-82
2024/02/25 23:59:42;;;;;;;14.10;5.40;;;;;;;7.62;59.41;101389.55;106484;1254;61314;-82
